This demonstration page uses our WeatherBlox Daily Observations layout. Learn more.

41.55636, -103.73856

Hourly Observations for August 18, 2018

Temp ( °F °C ) Dew Point ( °F °C ) Humidity (%) Winds ( mph kmh ) Pressure ( in mb ) Visibility ( mi km ) Precip ( " mm )
12:58 am 00:58 Clear 60 15.4 55 13 86 86 SW 13 20 30.06 1018 10 16.09344 0 0
1:58 am 01:58 Clear 58 14.4 55 12.5 88 88 SSW 8 13 30.06 1018 10 16.09344 0 0
2:58 am 02:58 Clear 57 13.9 55 12.5 91 91 SW 8 13 30.03 1017 10 16.09344 0 0
3:58 am 03:58 Clear 56 13.2 54 12.1 93 93 SW 8 13 30.03 1017 10 16.09344 0 0
4:58 am 04:58 Clear 56 13.4 54 12 91 91 SSW 8 13 30 1016 10 16.09344 0 0
5:58 am 05:58 Clear 56 13.3 53 11.9 91 91 SSW 8 13 30 1016 10 16.09344 0 0
6:58 am 06:58 Sunny 56 13.4 54 12.2 93 93 S 10 17 30 1016 10 16.09344 0 0
7:58 am 07:58 Sunny 60 15.6 57 14 90 90 S 8 13 30 1016 10 16.09344 0 0
8:58 am 08:58 Partly Cloudy 62 16.9 58 14.4 85 85 SW 9 15 30 1016 10 16.09344 0 0
9:58 am 09:58 Partly Cloudy 69 20.8 60 15.3 71 71 WSW 12 19 30 1016 10 16.09344 0 0
10:58 am 10:58 Sunny 75 23.9 58 14.2 55 55 W 5 7 30 1016 10 16.09344 0 0
11:58 am 11:58 Sunny 78 25.3 47 8.4 34 34 NW 17 28 30 1016 10 16.09344 0 0
12:58 pm 12:58 Mostly Sunny 78 25.5 47 8.1 33 33 N 18 30 30 1016 10 16.09344 0 0
1:58 pm 13:58 Mostly Sunny 76 24.6 48 8.7 36 36 NW 23 37 30 1016 10 16.09344 0 0
2:58 pm 14:58 Mostly Sunny 76 24.6 49 9.2 38 38 NW 24 39 30 1016 10 16.09344 0 0
3:58 pm 15:58 Partly Cloudy 72 22.1 49 9.6 45 45 NW 24 39 30.03 1017 10 16.09344 0 0
4:58 pm 16:58 Hazy 68 19.8 51 10.6 56 56 NNE 6 9 30 1016 N/A 0 0
5:58 pm 17:58 Mostly Cloudy 69 20.3 52 11.2 56 56 NNE 9 15 30 1016 10 16.09344 0 0
6:58 pm 18:58 Sunny 66 18.8 52 11.2 62 62 ENE 7 11 30 1016 10 16.09344 0 0
7:58 pm 19:58 Mostly Cloudy 61 16.3 52 11.3 72 72 N 12 19 30.06 1018 10 16.09344 0 0
8:58 pm 20:58 Cloudy 62 16.8 53 11.7 72 72 W 8 13 30.06 1018 10 16.09344 0 0
9:58 pm 21:58 Cloudy 60 15.4 52 11 75 75 NW 13 20 30.03 1017 10 16.09344 0 0
10:58 pm 22:58 Mostly Cloudy 59 15 55 12.7 86 86 NNW 10 17 30 1016 10 16.09344 0 0
11:58 pm 23:58 Clear 57 13.7 54 12.3 91 91 NW 10 17 30 1016 10 16.09344 0 0

Powered by AerisWeather